Portada
METAR-TAF:

METAR-TAF

Aeroports :

Naval Auxiliary Landing Field Fentress

Chesapeake, Virgínia, Estats Units d'Amèrica

latitud: 36-42-03N, longitud: 076-07-42W, altitud: 3 m

Observació

L'informe es va fer fa 15 minuts, a les 19:56 UTC
Vent 3 kt amb direcció variable
Temperatura 26°C
Humitat 54%
Pressió 1016 hPa
Visibilitat: 16.1 km
Escasses núvols a una alçada de 7500 ft
Núvols disperses a una alçada de 10000 ft
Cel ennuvolat a una alçada de 12000 ft
pluja

METAR: KNFE 131956Z AUTO VRB03KT 10SM -RA FEW075 SCT100 BKN120 26/16 A3001 RMK AO2 RAB52 SLP163 P0000 T02610156

Hora: 16:11 (20:11 UTC)


TAF: manca

Observacions i pronòstics meteorològics de més de 4000 aeroports (METAR i TAF).

Les estacions disponibles són els punts grocs i vermells al mapa.

Posi el ratolí al punt desitjat per veure el nom de l'estació.

Feu clic per veure les observacions i els pronòstics meteorològics.

Per canviar el mapa: feu clic els botons verds amb una creu de color negre per apropar; al botó verd amb un guió per allunyar la imatge; o en les fletxes verdes per a mapes adjacents.


METAR-TAF: